createdAt,value
2022-12-05T00:00:00.189Z,62
2022-12-05T00:04:00.261Z,64
2022-12-05T00:08:00.223Z,74
2022-12-05T00:12:00.164Z,56
2022-12-05T00:16:00.106Z,61
2022-12-05T00:20:00.435Z,70
2022-12-05T00:24:00.145Z,68
2022-12-05T00:28:00.135Z,69
2022-12-05T00:32:00.272Z,82
2022-12-05T00:36:00.138Z,63
2022-12-05T00:40:00.451Z,53
2022-12-05T00:44:00.136Z,70
2022-12-05T00:48:00.180Z,70
2022-12-05T00:52:00.137Z,58
2022-12-05T00:56:00.141Z,70
2022-12-05T01:00:00.490Z,60
2022-12-05T01:04:00.140Z,71
2022-12-05T01:08:00.234Z,64
2022-12-05T01:12:00.127Z,64
2022-12-05T01:16:00.146Z,61
2022-12-05T01:20:00.375Z,66
2022-12-05T01:24:00.159Z,66
2022-12-05T01:28:00.116Z,66
2022-12-05T01:32:00.274Z,56
2022-12-05T01:36:00.133Z,48
2022-12-05T01:40:00.181Z,58
2022-12-05T01:44:00.153Z,60
2022-12-05T01:48:00.151Z,53
2022-12-05T01:52:00.141Z,70
2022-12-05T01:56:00.137Z,64
2022-12-05T02:00:00.497Z,55
2022-12-05T02:04:00.155Z,64
2022-12-05T02:08:00.225Z,67
2022-12-05T02:12:00.145Z,69
2022-12-05T02:16:00.134Z,54
2022-12-05T02:20:00.443Z,56
2022-12-05T02:24:00.155Z,45
2022-12-05T02:28:00.145Z,53
2022-12-05T02:32:00.130Z,53
2022-12-05T02:36:00.134Z,50
2022-12-05T02:40:00.402Z,55
2022-12-05T02:44:00.144Z,60
2022-12-05T02:48:00.127Z,52
2022-12-05T02:52:00.139Z,67
2022-12-05T02:56:00.140Z,54
2022-12-05T03:00:00.484Z,50
2022-12-05T03:04:00.237Z,53
2022-12-05T03:08:00.234Z,46
2022-12-05T03:12:00.161Z,39
2022-12-05T03:16:00.127Z,35
2022-12-05T03:20:00.588Z,56
2022-12-05T03:24:00.121Z,57
2022-12-05T03:28:00.121Z,44
2022-12-05T03:32:00.102Z,43
2022-12-05T03:36:00.125Z,39
2022-12-05T03:40:00.297Z,46
2022-12-05T03:44:00.136Z,50
2022-12-05T03:48:00.131Z,42
2022-12-05T03:52:00.131Z,33
2022-12-05T03:56:00.116Z,42
2022-12-05T04:00:00.615Z,40
2022-12-05T04:04:00.237Z,28
2022-12-05T04:08:00.189Z,49
2022-12-05T04:12:00.145Z,39
2022-12-05T04:16:00.221Z,39
2022-12-05T04:20:00.414Z,41
2022-12-05T04:24:00.136Z,41
2022-12-05T04:28:00.150Z,39
2022-12-05T04:32:00.141Z,31
2022-12-05T04:36:00.152Z,38
2022-12-05T04:40:00.501Z,39
2022-12-05T04:44:00.138Z,44
2022-12-05T04:48:00.152Z,31
2022-12-05T04:52:00.143Z,37
2022-12-05T04:56:00.128Z,36
2022-12-05T05:00:00.758Z,31
2022-12-05T05:04:00.132Z,29
2022-12-05T05:08:00.247Z,32
2022-12-05T05:12:00.123Z,32
2022-12-05T05:16:00.194Z,41
2022-12-05T05:20:00.428Z,35
2022-12-05T05:24:00.154Z,35
2022-12-05T05:28:00.149Z,23
2022-12-05T05:32:00.153Z,33
2022-12-05T05:36:00.160Z,27
2022-12-05T05:40:02.138Z,26
2022-12-05T05:44:00.158Z,36
2022-12-05T05:48:00.164Z,30
2022-12-05T05:52:00.172Z,29
2022-12-05T05:56:00.196Z,29
2022-12-05T06:00:00.531Z,36
2022-12-05T06:04:00.396Z,32
2022-12-05T06:08:00.192Z,29
2022-12-05T06:12:00.133Z,25
2022-12-05T06:16:00.213Z,34
2022-12-05T06:20:00.572Z,28
2022-12-05T06:24:00.146Z,32
2022-12-05T06:28:00.142Z,22
2022-12-05T06:32:00.273Z,25
2022-12-05T06:36:00.147Z,22
2022-12-05T06:40:00.597Z,22
2022-12-05T06:44:02.285Z,27
2022-12-05T06:48:00.152Z,23
2022-12-05T06:52:00.144Z,21
2022-12-05T06:56:00.143Z,25
2022-12-05T07:00:00.376Z,25
2022-12-05T07:04:00.129Z,28
2022-12-05T07:08:00.187Z,21
2022-12-05T07:12:00.130Z,31
2022-12-05T07:16:00.199Z,24
2022-12-05T07:20:00.573Z,20
2022-12-05T07:24:00.138Z,12
2022-12-05T07:28:00.150Z,31
2022-12-05T07:32:00.284Z,26
2022-12-05T07:36:00.152Z,27
2022-12-05T07:40:00.485Z,22
2022-12-05T07:44:00.172Z,28
2022-12-05T07:48:00.296Z,24
2022-12-05T07:52:00.148Z,15
2022-12-05T07:56:00.120Z,18
2022-12-05T08:00:00.485Z,22
2022-12-05T08:04:00.151Z,18
2022-12-05T08:08:00.192Z,25
2022-12-05T08:12:00.122Z,22
2022-12-05T08:16:00.152Z,22
2022-12-05T08:20:00.465Z,21
2022-12-05T08:24:00.164Z,22
2022-12-05T08:28:00.138Z,19
2022-12-05T08:32:00.120Z,25
2022-12-05T08:36:00.156Z,19
2022-12-05T08:40:00.399Z,21
2022-12-05T08:44:00.140Z,20
2022-12-05T08:48:00.135Z,18
2022-12-05T08:52:00.150Z,23
2022-12-05T08:56:00.161Z,20
2022-12-05T09:00:00.220Z,28
2022-12-05T09:04:00.151Z,23
2022-12-05T09:08:00.246Z,21
2022-12-05T09:12:00.151Z,21
2022-12-05T09:16:00.189Z,21
2022-12-05T09:20:00.176Z,27
2022-12-05T09:24:00.210Z,17
2022-12-05T09:28:00.162Z,27
2022-12-05T09:32:00.141Z,20
2022-12-05T09:36:00.142Z,23
2022-12-05T09:40:00.155Z,28
2022-12-05T09:44:00.166Z,22
2022-12-05T09:48:00.123Z,31
2022-12-05T09:52:00.162Z,25
2022-12-05T09:56:00.153Z,29
2022-12-05T10:00:00.147Z,34
2022-12-05T10:04:00.138Z,37
2022-12-05T10:08:00.288Z,32
2022-12-05T10:12:00.152Z,25
2022-12-05T10:16:00.215Z,26
2022-12-05T10:20:00.149Z,24
2022-12-05T10:24:00.156Z,28
2022-12-05T10:28:00.150Z,30
2022-12-05T10:32:00.127Z,26
2022-12-05T10:36:00.131Z,27
2022-12-05T10:40:00.193Z,36
2022-12-05T10:44:00.146Z,62
2022-12-05T10:48:00.127Z,49
2022-12-05T10:52:00.157Z,42
2022-12-05T10:56:29.308Z,32
2022-12-05T11:00:00.192Z,42
2022-12-05T11:04:00.155Z,31
2022-12-05T11:08:00.214Z,27
2022-12-05T11:12:00.134Z,24
2022-12-05T11:16:00.203Z,28
2022-12-05T11:20:00.225Z,28
2022-12-05T11:24:00.147Z,26
2022-12-05T11:28:01.637Z,23
2022-12-05T11:32:00.157Z,30
2022-12-05T11:36:00.150Z,29
2022-12-05T11:40:00.146Z,32
2022-12-05T11:44:00.149Z,30
2022-12-05T11:48:00.161Z,32
2022-12-05T11:52:00.172Z,30
2022-12-05T11:56:00.117Z,32
2022-12-05T12:00:00.538Z,33
2022-12-05T12:04:00.163Z,32
2022-12-05T12:08:00.173Z,37
2022-12-05T12:12:00.155Z,29
2022-12-05T12:16:03.812Z,31
2022-12-05T12:20:00.183Z,33
2022-12-05T12:24:00.137Z,37
2022-12-05T12:28:04.534Z,37
2022-12-05T12:32:00.173Z,37
2022-12-05T12:36:00.124Z,43
2022-12-05T12:40:00.181Z,35
2022-12-05T12:44:00.153Z,28
2022-12-05T12:48:00.109Z,33
2022-12-05T12:52:00.142Z,27
2022-12-05T12:56:00.135Z,31
2022-12-05T13:00:00.384Z,33
2022-12-05T13:04:00.121Z,39
2022-12-05T13:08:00.232Z,32
2022-12-05T13:12:00.128Z,31
2022-12-05T13:16:00.153Z,37
2022-12-05T13:20:00.162Z,42
2022-12-05T13:24:00.143Z,37
2022-12-05T13:28:00.122Z,36
2022-12-05T13:32:00.200Z,35
2022-12-05T13:36:00.129Z,36
2022-12-05T13:40:00.586Z,37
2022-12-05T13:44:06.367Z,45
2022-12-05T13:48:00.135Z,42
2022-12-05T13:52:00.147Z,39
2022-12-05T13:56:00.263Z,47
2022-12-05T14:00:00.678Z,36
2022-12-05T14:04:00.177Z,49
2022-12-05T14:08:03.755Z,40
2022-12-05T14:12:00.140Z,41
2022-12-05T14:16:00.155Z,39
2022-12-05T14:20:00.572Z,44
2022-12-05T14:24:00.141Z,47
2022-12-05T14:28:00.182Z,51
2022-12-05T14:32:04.150Z,47
2022-12-05T14:36:00.162Z,39
2022-12-05T14:40:00.639Z,49
2022-12-05T14:44:05.122Z,43
2022-12-05T14:48:00.122Z,56
2022-12-05T14:52:00.153Z,52
2022-12-05T14:56:00.157Z,46
2022-12-05T15:00:00.542Z,42
2022-12-05T15:04:00.180Z,45
2022-12-05T15:08:00.331Z,42
2022-12-05T15:12:04.737Z,60
2022-12-05T15:16:00.211Z,50
2022-12-05T15:20:00.616Z,52
2022-12-05T15:24:00.117Z,46
2022-12-05T15:28:00.108Z,48
2022-12-05T15:32:00.371Z,46
2022-12-05T15:36:00.143Z,46
2022-12-05T15:40:00.205Z,40
2022-12-05T15:44:00.112Z,49
2022-12-05T15:48:00.141Z,54
2022-12-05T15:52:00.154Z,39
2022-12-05T15:56:00.149Z,45
2022-12-05T16:00:00.631Z,54
2022-12-05T16:04:00.148Z,45
2022-12-05T16:08:00.200Z,54
2022-12-05T16:12:00.151Z,54
2022-12-05T16:16:00.191Z,64
2022-12-05T16:20:00.571Z,48
2022-12-05T16:24:00.149Z,45
2022-12-05T16:28:00.142Z,53
2022-12-05T16:32:00.165Z,55
2022-12-05T16:36:00.111Z,48
2022-12-05T16:40:00.432Z,48
2022-12-05T16:44:00.144Z,57
2022-12-05T16:48:00.150Z,40
2022-12-05T16:52:00.137Z,56
2022-12-05T16:56:00.151Z,49
2022-12-05T17:00:00.192Z,52
2022-12-05T17:04:00.268Z,55
2022-12-05T17:08:00.211Z,47
2022-12-05T17:12:00.162Z,48
2022-12-05T17:16:00.194Z,62
2022-12-05T17:20:00.190Z,58
2022-12-05T17:24:00.123Z,53
2022-12-05T17:28:00.159Z,52
2022-12-05T17:32:00.234Z,52
2022-12-05T17:36:00.144Z,55
2022-12-05T17:40:00.546Z,41
2022-12-05T17:44:00.125Z,53
2022-12-05T17:48:00.150Z,57
2022-12-05T17:52:20.972Z,47
2022-12-05T17:56:00.368Z,43
2022-12-05T18:00:00.146Z,56
2022-12-05T18:04:00.136Z,45
2022-12-05T18:08:00.245Z,49
2022-12-05T18:12:00.162Z,50
2022-12-05T18:16:00.251Z,53
2022-12-05T18:20:00.132Z,37
2022-12-05T18:24:00.125Z,49
2022-12-05T18:28:00.138Z,50
2022-12-05T18:32:00.434Z,48
2022-12-05T18:36:00.138Z,53
2022-12-05T18:40:00.123Z,54
2022-12-05T18:44:00.137Z,50
2022-12-05T18:48:16.408Z,55
2022-12-05T18:52:00.126Z,53
2022-12-05T18:56:20.849Z,55
2022-12-05T19:00:00.158Z,46
2022-12-05T19:04:00.118Z,46
2022-12-05T19:08:00.218Z,48
2022-12-05T19:12:00.121Z,58
2022-12-05T19:16:00.119Z,56
2022-12-05T19:20:00.142Z,56
2022-12-05T19:24:00.145Z,46
2022-12-05T19:28:00.138Z,47
2022-12-05T19:32:00.252Z,39
2022-12-05T19:36:00.144Z,51
2022-12-05T19:40:00.473Z,47
2022-12-05T19:44:00.143Z,52
2022-12-05T19:48:00.152Z,45
2022-12-05T19:52:00.139Z,47
2022-12-05T19:56:00.127Z,38
2022-12-05T20:00:00.571Z,50
2022-12-05T20:04:00.118Z,45
2022-12-05T20:08:00.194Z,48
2022-12-05T20:12:00.127Z,36
2022-12-05T20:16:00.117Z,42
2022-12-05T20:20:00.265Z,46
2022-12-05T20:24:00.139Z,37
2022-12-05T20:28:00.129Z,36
2022-12-05T20:32:00.135Z,28
2022-12-05T20:36:00.150Z,28
2022-12-05T20:40:00.350Z,24
2022-12-05T20:44:00.155Z,27
2022-12-05T20:48:00.108Z,26
2022-12-05T20:52:00.121Z,28
2022-12-05T20:56:00.143Z,24
2022-12-05T21:00:00.527Z,26
2022-12-05T21:04:00.167Z,23
2022-12-05T21:08:00.233Z,23
2022-12-05T21:12:00.139Z,19
2022-12-05T21:16:00.235Z,19
2022-12-05T21:20:00.543Z,26
2022-12-05T21:24:00.117Z,30
2022-12-05T21:28:00.102Z,31
2022-12-05T21:32:00.145Z,29
2022-12-05T21:36:00.117Z,23
2022-12-05T21:40:00.617Z,18
2022-12-05T21:44:00.134Z,25
2022-12-05T21:48:00.128Z,20
2022-12-05T21:52:00.141Z,19
2022-12-05T21:56:00.108Z,22
2022-12-05T22:00:00.592Z,28
2022-12-05T22:04:00.143Z,19
2022-12-05T22:08:04.772Z,27
2022-12-05T22:12:00.368Z,28
2022-12-05T22:16:00.180Z,34
2022-12-05T22:20:00.422Z,21
2022-12-05T22:24:00.147Z,24
2022-12-05T22:28:00.152Z,22
2022-12-05T22:32:00.131Z,27
2022-12-05T22:36:00.132Z,18
2022-12-05T22:40:00.363Z,26
2022-12-05T22:44:00.137Z,21
2022-12-05T22:48:00.148Z,22
2022-12-05T22:52:00.160Z,18
2022-12-05T22:56:00.145Z,21
2022-12-05T23:00:00.580Z,26
2022-12-05T23:04:00.288Z,26
2022-12-05T23:08:00.180Z,15
2022-12-05T23:12:00.131Z,21
2022-12-05T23:16:00.258Z,18
2022-12-05T23:20:00.461Z,21
2022-12-05T23:24:00.150Z,21
2022-12-05T23:28:00.149Z,27
2022-12-05T23:32:00.245Z,26
2022-12-05T23:36:00.127Z,19
2022-12-05T23:40:00.519Z,24
2022-12-05T23:44:00.141Z,19
2022-12-05T23:48:04.395Z,20
2022-12-05T23:52:00.106Z,18
2022-12-05T23:56:00.117Z,18
